sensor_id;sensor_type;location;lat;lon;timestamp;temperature;humidity
3408;DHT22;1717;50.240;8.406;2022-12-01T00:00:24;7.80;99.90
3408;DHT22;1717;50.240;8.406;2022-12-01T00:02:53;7.90;99.90
3408;DHT22;1717;50.240;8.406;2022-12-01T00:05:20;7.80;99.90
3408;DHT22;1717;50.240;8.406;2022-12-01T00:07:47;7.80;99.90
3408;DHT22;1717;50.240;8.406;2022-12-01T00:10:14;7.80;99.90
3408;DHT22;1717;50.240;8.406;2022-12-01T00:12:56;7.80;99.90
3408;DHT22;1717;50.240;8.406;2022-12-01T00:15:25;7.90;99.90
3408;DHT22;1717;50.240;8.406;2022-12-01T00:17:52;7.90;99.90
3408;DHT22;1717;50.240;8.406;2022-12-01T00:20:19;7.80;99.90
3408;DHT22;1717;50.240;8.406;2022-12-01T00:22:47;7.80;99.90
3408;DHT22;1717;50.240;8.406;2022-12-01T00:25:16;7.90;99.90
3408;DHT22;1717;50.240;8.406;2022-12-01T00:27:50;7.80;99.90
3408;DHT22;1717;50.240;8.406;2022-12-01T00:30:20;7.90;99.90
3408;DHT22;1717;50.240;8.406;2022-12-01T00:32:47;7.80;99.90
3408;DHT22;1717;50.240;8.406;2022-12-01T00:35:15;7.80;99.90
3408;DHT22;1717;50.240;8.406;2022-12-01T00:37:42;7.80;99.90
3408;DHT22;1717;50.240;8.406;2022-12-01T00:40:10;7.80;99.90
3408;DHT22;1717;50.240;8.406;2022-12-01T00:42:37;7.80;99.90
3408;DHT22;1717;50.240;8.406;2022-12-01T00:45:05;7.90;99.90
3408;DHT22;1717;50.240;8.406;2022-12-01T00:47:33;7.80;99.90
3408;DHT22;1717;50.240;8.406;2022-12-01T00:50:00;7.80;99.90
3408;DHT22;1717;50.240;8.406;2022-12-01T00:52:27;7.70;99.90
3408;DHT22;1717;50.240;8.406;2022-12-01T00:54:54;7.80;99.90
3408;DHT22;1717;50.240;8.406;2022-12-01T00:57:20;7.70;99.90
3408;DHT22;1717;50.240;8.406;2022-12-01T00:59:48;7.80;99.90
3408;DHT22;1717;50.240;8.406;2022-12-01T01:02:14;7.90;99.90
3408;DHT22;1717;50.240;8.406;2022-12-01T01:04:43;7.80;99.90
3408;DHT22;1717;50.240;8.406;2022-12-01T01:07:10;7.90;99.90
3408;DHT22;1717;50.240;8.406;2022-12-01T01:09:37;7.70;99.90
3408;DHT22;1717;50.240;8.406;2022-12-01T01:12:04;7.70;99.90
3408;DHT22;1717;50.240;8.406;2022-12-01T01:14:30;7.90;99.90
3408;DHT22;1717;50.240;8.406;2022-12-01T01:16:57;7.90;99.90
3408;DHT22;1717;50.240;8.406;2022-12-01T01:19:24;7.90;99.90
3408;DHT22;1717;50.240;8.406;2022-12-01T01:21:52;7.90;99.90
3408;DHT22;1717;50.240;8.406;2022-12-01T01:24:19;7.80;99.90
3408;DHT22;1717;50.240;8.406;2022-12-01T01:26:46;7.80;99.90
3408;DHT22;1717;50.240;8.406;2022-12-01T01:29:13;7.70;99.90
3408;DHT22;1717;50.240;8.406;2022-12-01T01:31:40;7.70;99.90
3408;DHT22;1717;50.240;8.406;2022-12-01T01:34:06;7.70;99.90
3408;DHT22;1717;50.240;8.406;2022-12-01T01:36:33;7.80;99.90
3408;DHT22;1717;50.240;8.406;2022-12-01T01:39:10;7.80;99.90
3408;DHT22;1717;50.240;8.406;2022-12-01T01:41:37;7.70;99.90
3408;DHT22;1717;50.240;8.406;2022-12-01T01:47:04;7.70;99.90
3408;DHT22;1717;50.240;8.406;2022-12-01T01:49:31;7.60;99.90
3408;DHT22;1717;50.240;8.406;2022-12-01T01:51:58;7.60;99.90
3408;DHT22;1717;50.240;8.406;2022-12-01T01:54:30;7.80;99.90
3408;DHT22;1717;50.240;8.406;2022-12-01T01:56:59;7.70;99.90
3408;DHT22;1717;50.240;8.406;2022-12-01T01:59:30;7.70;99.90
3408;DHT22;1717;50.240;8.406;2022-12-01T02:02:01;7.60;99.90
3408;DHT22;1717;50.240;8.406;2022-12-01T02:04:31;7.60;99.90
3408;DHT22;1717;50.240;8.406;2022-12-01T02:07:00;7.70;99.90
3408;DHT22;1717;50.240;8.406;2022-12-01T02:09:28;7.70;99.90
3408;DHT22;1717;50.240;8.406;2022-12-01T02:12:05;7.70;99.90
3408;DHT22;1717;50.240;8.406;2022-12-01T02:15:01;7.70;99.90
3408;DHT22;1717;50.240;8.406;2022-12-01T02:17:35;7.80;99.90
3408;DHT22;1717;50.240;8.406;2022-12-01T02:20:28;7.80;99.90
3408;DHT22;1717;50.240;8.406;2022-12-01T02:23:21;7.70;99.90
3408;DHT22;1717;50.240;8.406;2022-12-01T02:25:55;7.70;99.90
3408;DHT22;1717;50.240;8.406;2022-12-01T02:28:43;7.80;99.90
3408;DHT22;1717;50.240;8.406;2022-12-01T02:31:17;7.70;99.90
3408;DHT22;1717;50.240;8.406;2022-12-01T02:33:52;7.60;99.90
3408;DHT22;1717;50.240;8.406;2022-12-01T02:36:27;7.60;99.90
3408;DHT22;1717;50.240;8.406;2022-12-01T02:39:03;7.60;99.90
3408;DHT22;1717;50.240;8.406;2022-12-01T02:41:36;7.60;99.90
3408;DHT22;1717;50.240;8.406;2022-12-01T02:44:15;7.60;99.90
3408;DHT22;1717;50.240;8.406;2022-12-01T02:46:47;7.70;99.90
3408;DHT22;1717;50.240;8.406;2022-12-01T02:49:19;7.60;99.90
3408;DHT22;1717;50.240;8.406;2022-12-01T02:51:48;7.50;99.90
3408;DHT22;1717;50.240;8.406;2022-12-01T02:54:17;7.50;99.90
3408;DHT22;1717;50.240;8.406;2022-12-01T02:56:44;7.50;99.90
3408;DHT22;1717;50.240;8.406;2022-12-01T02:59:13;7.50;99.90
3408;DHT22;1717;50.240;8.406;2022-12-01T03:01:54;7.60;99.90
3408;DHT22;1717;50.240;8.406;2022-12-01T03:04:40;7.50;99.90
3408;DHT22;1717;50.240;8.406;2022-12-01T03:07:18;7.50;99.90
3408;DHT22;1717;50.240;8.406;2022-12-01T03:09:56;7.40;99.90
3408;DHT22;1717;50.240;8.406;2022-12-01T03:12:36;7.40;99.90
3408;DHT22;1717;50.240;8.406;2022-12-01T03:15:08;7.40;99.90
3408;DHT22;1717;50.240;8.406;2022-12-01T03:17:41;7.40;99.90
3408;DHT22;1717;50.240;8.406;2022-12-01T03:20:15;7.40;99.90
3408;DHT22;1717;50.240;8.406;2022-12-01T03:22:47;7.30;99.90
3408;DHT22;1717;50.240;8.406;2022-12-01T03:25:16;7.40;99.90
3408;DHT22;1717;50.240;8.406;2022-12-01T03:27:44;7.30;99.90
3408;DHT22;1717;50.240;8.406;2022-12-01T03:30:13;7.20;99.90
3408;DHT22;1717;50.240;8.406;2022-12-01T03:32:45;7.20;99.90
3408;DHT22;1717;50.240;8.406;2022-12-01T03:35:15;7.30;99.90
3408;DHT22;1717;50.240;8.406;2022-12-01T03:37:46;7.20;99.90
3408;DHT22;1717;50.240;8.406;2022-12-01T03:40:17;7.10;99.90
3408;DHT22;1717;50.240;8.406;2022-12-01T03:42:48;7.00;99.90
3408;DHT22;1717;50.240;8.406;2022-12-01T03:45:19;6.90;99.90
3408;DHT22;1717;50.240;8.406;2022-12-01T03:47:49;6.90;99.90
3408;DHT22;1717;50.240;8.406;2022-12-01T03:50:16;6.80;99.90
3408;DHT22;1717;50.240;8.406;2022-12-01T03:52:48;6.80;99.90
3408;DHT22;1717;50.240;8.406;2022-12-01T03:55:21;6.70;99.90
3408;DHT22;1717;50.240;8.406;2022-12-01T03:57:53;6.60;99.90
3408;DHT22;1717;50.240;8.406;2022-12-01T04:00:22;6.60;99.90
3408;DHT22;1717;50.240;8.406;2022-12-01T04:02:54;6.50;99.90
3408;DHT22;1717;50.240;8.406;2022-12-01T04:05:22;6.50;99.90
3408;DHT22;1717;50.240;8.406;2022-12-01T04:07:48;6.50;99.90
3408;DHT22;1717;50.240;8.406;2022-12-01T04:10:15;6.40;99.90
3408;DHT22;1717;50.240;8.406;2022-12-01T04:12:42;6.40;99.90
3408;DHT22;1717;50.240;8.406;2022-12-01T04:15:11;6.30;99.90
3408;DHT22;1717;50.240;8.406;2022-12-01T04:17:39;6.30;99.90
3408;DHT22;1717;50.240;8.406;2022-12-01T04:20:10;6.30;99.90
3408;DHT22;1717;50.240;8.406;2022-12-01T04:22:38;6.40;99.90
3408;DHT22;1717;50.240;8.406;2022-12-01T04:25:06;6.30;99.90
3408;DHT22;1717;50.240;8.406;2022-12-01T04:27:33;6.30;99.90
3408;DHT22;1717;50.240;8.406;2022-12-01T04:30:00;6.40;99.90
3408;DHT22;1717;50.240;8.406;2022-12-01T04:32:27;6.40;99.90
3408;DHT22;1717;50.240;8.406;2022-12-01T04:34:54;6.40;99.90
3408;DHT22;1717;50.240;8.406;2022-12-01T04:37:22;6.30;99.90
3408;DHT22;1717;50.240;8.406;2022-12-01T04:39:49;6.30;99.90
3408;DHT22;1717;50.240;8.406;2022-12-01T04:42:15;6.30;99.90
3408;DHT22;1717;50.240;8.406;2022-12-01T04:44:42;6.30;99.90
3408;DHT22;1717;50.240;8.406;2022-12-01T04:47:09;6.30;99.90
3408;DHT22;1717;50.240;8.406;2022-12-01T04:49:39;6.20;99.90
3408;DHT22;1717;50.240;8.406;2022-12-01T04:52:12;6.20;99.90
3408;DHT22;1717;50.240;8.406;2022-12-01T04:54:40;6.20;99.90
3408;DHT22;1717;50.240;8.406;2022-12-01T04:57:07;6.30;99.90
3408;DHT22;1717;50.240;8.406;2022-12-01T04:59:34;6.20;99.90
3408;DHT22;1717;50.240;8.406;2022-12-01T05:02:01;6.30;99.90
3408;DHT22;1717;50.240;8.406;2022-12-01T05:04:29;6.30;99.90
3408;DHT22;1717;50.240;8.406;2022-12-01T05:06:58;6.30;99.90
3408;DHT22;1717;50.240;8.406;2022-12-01T05:09:25;6.40;99.90
3408;DHT22;1717;50.240;8.406;2022-12-01T05:11:53;6.40;99.90
3408;DHT22;1717;50.240;8.406;2022-12-01T05:14:20;6.50;99.90
3408;DHT22;1717;50.240;8.406;2022-12-01T05:16:46;6.50;99.90
3408;DHT22;1717;50.240;8.406;2022-12-01T05:19:13;6.40;99.90
3408;DHT22;1717;50.240;8.406;2022-12-01T05:21:57;6.50;99.90
3408;DHT22;1717;50.240;8.406;2022-12-01T05:24:25;6.50;99.90
3408;DHT22;1717;50.240;8.406;2022-12-01T05:26:53;6.40;99.90
3408;DHT22;1717;50.240;8.406;2022-12-01T05:29:19;6.40;99.90
3408;DHT22;1717;50.240;8.406;2022-12-01T05:31:46;6.40;99.90
3408;DHT22;1717;50.240;8.406;2022-12-01T05:34:13;6.40;99.90
3408;DHT22;1717;50.240;8.406;2022-12-01T05:36:40;6.40;99.90
3408;DHT22;1717;50.240;8.406;2022-12-01T05:39:07;6.40;99.90
3408;DHT22;1717;50.240;8.406;2022-12-01T05:41:35;6.40;99.90
3408;DHT22;1717;50.240;8.406;2022-12-01T05:44:03;6.40;99.90
3408;DHT22;1717;50.240;8.406;2022-12-01T05:46:30;6.40;99.90
3408;DHT22;1717;50.240;8.406;2022-12-01T05:48:57;6.40;99.90
3408;DHT22;1717;50.240;8.406;2022-12-01T05:51:24;6.50;99.90
3408;DHT22;1717;50.240;8.406;2022-12-01T05:53:50;6.50;99.90
3408;DHT22;1717;50.240;8.406;2022-12-01T05:56:17;6.50;99.90
3408;DHT22;1717;50.240;8.406;2022-12-01T05:58:44;6.40;99.90
3408;DHT22;1717;50.240;8.406;2022-12-01T06:01:12;6.40;99.90
3408;DHT22;1717;50.240;8.406;2022-12-01T06:03:40;6.40;99.90
3408;DHT22;1717;50.240;8.406;2022-12-01T06:06:06;6.40;99.90
3408;DHT22;1717;50.240;8.406;2022-12-01T06:08:33;6.40;99.90
3408;DHT22;1717;50.240;8.406;2022-12-01T06:11:00;6.40;99.90
3408;DHT22;1717;50.240;8.406;2022-12-01T06:13:27;6.40;99.90
3408;DHT22;1717;50.240;8.406;2022-12-01T06:15:58;6.40;99.90
3408;DHT22;1717;50.240;8.406;2022-12-01T06:18:28;6.40;99.90
3408;DHT22;1717;50.240;8.406;2022-12-01T06:20:55;6.40;99.90
3408;DHT22;1717;50.240;8.406;2022-12-01T06:23:22;6.40;99.90
3408;DHT22;1717;50.240;8.406;2022-12-01T06:25:49;6.40;99.90
3408;DHT22;1717;50.240;8.406;2022-12-01T06:28:16;6.50;99.90
3408;DHT22;1717;50.240;8.406;2022-12-01T06:30:43;6.60;99.90
3408;DHT22;1717;50.240;8.406;2022-12-01T06:33:10;6.60;99.90
3408;DHT22;1717;50.240;8.406;2022-12-01T06:35:38;6.60;99.90
3408;DHT22;1717;50.240;8.406;2022-12-01T06:38:05;6.60;99.90
3408;DHT22;1717;50.240;8.406;2022-12-01T06:40:32;6.50;99.90
3408;DHT22;1717;50.240;8.406;2022-12-01T06:42:59;6.40;99.90
3408;DHT22;1717;50.240;8.406;2022-12-01T06:45:27;6.50;99.90
3408;DHT22;1717;50.240;8.406;2022-12-01T06:47:55;6.40;99.90
3408;DHT22;1717;50.240;8.406;2022-12-01T06:50:22;6.50;99.90
3408;DHT22;1717;50.240;8.406;2022-12-01T06:52:50;6.50;99.90
3408;DHT22;1717;50.240;8.406;2022-12-01T06:55:18;6.40;99.90
3408;DHT22;1717;50.240;8.406;2022-12-01T06:57:45;6.40;99.90
3408;DHT22;1717;50.240;8.406;2022-12-01T07:00:13;6.40;99.90
3408;DHT22;1717;50.240;8.406;2022-12-01T07:02:40;6.40;99.90
3408;DHT22;1717;50.240;8.406;2022-12-01T07:05:08;6.40;99.90
3408;DHT22;1717;50.240;8.406;2022-12-01T07:07:35;6.30;99.90
3408;DHT22;1717;50.240;8.406;2022-12-01T07:10:05;6.30;99.90
3408;DHT22;1717;50.240;8.406;2022-12-01T07:12:32;6.30;99.90
3408;DHT22;1717;50.240;8.406;2022-12-01T07:14:59;6.20;99.90
3408;DHT22;1717;50.240;8.406;2022-12-01T07:17:27;6.30;99.90
3408;DHT22;1717;50.240;8.406;2022-12-01T07:19:54;6.20;99.90
3408;DHT22;1717;50.240;8.406;2022-12-01T07:22:20;6.00;99.90
3408;DHT22;1717;50.240;8.406;2022-12-01T07:24:47;6.20;99.90
3408;DHT22;1717;50.240;8.406;2022-12-01T07:27:15;6.20;99.90
3408;DHT22;1717;50.240;8.406;2022-12-01T07:29:42;6.40;99.90
3408;DHT22;1717;50.240;8.406;2022-12-01T07:32:09;6.30;99.90
3408;DHT22;1717;50.240;8.406;2022-12-01T07:34:36;6.30;99.90
3408;DHT22;1717;50.240;8.406;2022-12-01T07:37:02;6.30;99.90
3408;DHT22;1717;50.240;8.406;2022-12-01T07:39:29;6.30;99.90
3408;DHT22;1717;50.240;8.406;2022-12-01T07:41:56;6.20;99.90
3408;DHT22;1717;50.240;8.406;2022-12-01T07:44:24;6.20;99.90
3408;DHT22;1717;50.240;8.406;2022-12-01T07:46:51;6.10;99.90
3408;DHT22;1717;50.240;8.406;2022-12-01T07:49:18;6.10;99.90
3408;DHT22;1717;50.240;8.406;2022-12-01T07:51:44;6.10;99.90
3408;DHT22;1717;50.240;8.406;2022-12-01T07:54:11;6.10;99.90
3408;DHT22;1717;50.240;8.406;2022-12-01T07:56:39;6.10;99.90
3408;DHT22;1717;50.240;8.406;2022-12-01T07:59:06;6.10;99.90
3408;DHT22;1717;50.240;8.406;2022-12-01T08:01:38;6.00;99.90
3408;DHT22;1717;50.240;8.406;2022-12-01T08:04:04;6.00;99.90
3408;DHT22;1717;50.240;8.406;2022-12-01T08:06:41;6.00;99.90
3408;DHT22;1717;50.240;8.406;2022-12-01T08:09:08;6.00;99.90
3408;DHT22;1717;50.240;8.406;2022-12-01T08:11:35;6.00;99.90
3408;DHT22;1717;50.240;8.406;2022-12-01T08:14:02;5.90;99.90
3408;DHT22;1717;50.240;8.406;2022-12-01T08:16:28;6.00;99.90
3408;DHT22;1717;50.240;8.406;2022-12-01T08:18:57;6.00;99.90
3408;DHT22;1717;50.240;8.406;2022-12-01T08:21:24;5.90;99.90
3408;DHT22;1717;50.240;8.406;2022-12-01T08:23:52;5.90;99.90
3408;DHT22;1717;50.240;8.406;2022-12-01T08:26:20;5.90;99.90
3408;DHT22;1717;50.240;8.406;2022-12-01T08:28:48;6.00;99.90
3408;DHT22;1717;50.240;8.406;2022-12-01T08:31:17;6.00;99.90
3408;DHT22;1717;50.240;8.406;2022-12-01T08:33:44;6.00;99.90
3408;DHT22;1717;50.240;8.406;2022-12-01T08:36:13;6.00;99.90
3408;DHT22;1717;50.240;8.406;2022-12-01T08:38:42;6.00;99.90
3408;DHT22;1717;50.240;8.406;2022-12-01T08:41:09;6.00;99.90
3408;DHT22;1717;50.240;8.406;2022-12-01T08:43:50;6.00;99.90
3408;DHT22;1717;50.240;8.406;2022-12-01T08:46:17;6.10;99.90
3408;DHT22;1717;50.240;8.406;2022-12-01T08:48:44;6.10;99.90
3408;DHT22;1717;50.240;8.406;2022-12-01T08:51:14;6.10;99.90
3408;DHT22;1717;50.240;8.406;2022-12-01T08:53:43;6.10;99.90
3408;DHT22;1717;50.240;8.406;2022-12-01T08:56:12;6.10;99.90
3408;DHT22;1717;50.240;8.406;2022-12-01T08:58:39;6.10;99.90
3408;DHT22;1717;50.240;8.406;2022-12-01T09:01:08;5.90;99.90
3408;DHT22;1717;50.240;8.406;2022-12-01T09:03:36;5.90;99.90
3408;DHT22;1717;50.240;8.406;2022-12-01T09:06:04;5.90;99.90
3408;DHT22;1717;50.240;8.406;2022-12-01T09:08:34;5.90;99.90
3408;DHT22;1717;50.240;8.406;2022-12-01T09:11:03;5.90;99.90
3408;DHT22;1717;50.240;8.406;2022-12-01T09:13:33;5.90;99.90
3408;DHT22;1717;50.240;8.406;2022-12-01T09:16:11;5.90;99.90
3408;DHT22;1717;50.240;8.406;2022-12-01T09:18:38;5.80;99.90
3408;DHT22;1717;50.240;8.406;2022-12-01T09:21:12;5.80;99.90
3408;DHT22;1717;50.240;8.406;2022-12-01T09:23:41;5.80;99.90
3408;DHT22;1717;50.240;8.406;2022-12-01T09:26:09;5.80;99.90
3408;DHT22;1717;50.240;8.406;2022-12-01T09:28:36;5.80;99.90
3408;DHT22;1717;50.240;8.406;2022-12-01T09:31:03;5.80;99.90
3408;DHT22;1717;50.240;8.406;2022-12-01T09:33:30;5.50;99.90
3408;DHT22;1717;50.240;8.406;2022-12-01T09:35:58;5.70;99.90
3408;DHT22;1717;50.240;8.406;2022-12-01T09:38:25;5.70;99.90
3408;DHT22;1717;50.240;8.406;2022-12-01T09:40:53;5.70;99.90
3408;DHT22;1717;50.240;8.406;2022-12-01T09:43:24;5.60;99.90
3408;DHT22;1717;50.240;8.406;2022-12-01T09:46:03;5.60;99.90
3408;DHT22;1717;50.240;8.406;2022-12-01T09:48:37;5.60;99.90
3408;DHT22;1717;50.240;8.406;2022-12-01T09:51:10;5.50;99.90
3408;DHT22;1717;50.240;8.406;2022-12-01T09:53:38;5.40;99.90
3408;DHT22;1717;50.240;8.406;2022-12-01T09:56:17;5.50;99.90
3408;DHT22;1717;50.240;8.406;2022-12-01T09:58:45;5.50;99.90
3408;DHT22;1717;50.240;8.406;2022-12-01T10:01:15;5.50;99.90
3408;DHT22;1717;50.240;8.406;2022-12-01T10:03:45;5.60;99.90
3408;DHT22;1717;50.240;8.406;2022-12-01T10:06:15;5.60;99.90
3408;DHT22;1717;50.240;8.406;2022-12-01T10:08:56;5.60;99.90
3408;DHT22;1717;50.240;8.406;2022-12-01T10:11:30;5.70;99.90
3408;DHT22;1717;50.240;8.406;2022-12-01T10:13:59;5.70;99.90
3408;DHT22;1717;50.240;8.406;2022-12-01T10:16:31;5.70;99.90
3408;DHT22;1717;50.240;8.406;2022-12-01T10:19:04;5.80;99.90
3408;DHT22;1717;50.240;8.406;2022-12-01T10:21:43;5.90;99.90
3408;DHT22;1717;50.240;8.406;2022-12-01T10:24:26;5.90;99.90
3408;DHT22;1717;50.240;8.406;2022-12-01T10:27:04;5.90;99.90
3408;DHT22;1717;50.240;8.406;2022-12-01T10:29:40;5.90;99.90
3408;DHT22;1717;50.240;8.406;2022-12-01T10:32:12;5.90;99.90
3408;DHT22;1717;50.240;8.406;2022-12-01T10:34:42;5.80;99.90
3408;DHT22;1717;50.240;8.406;2022-12-01T10:37:14;5.80;99.90
3408;DHT22;1717;50.240;8.406;2022-12-01T10:39:43;5.70;99.90
3408;DHT22;1717;50.240;8.406;2022-12-01T10:42:15;5.70;99.90
3408;DHT22;1717;50.240;8.406;2022-12-01T10:44:43;5.70;99.90
3408;DHT22;1717;50.240;8.406;2022-12-01T10:47:17;5.70;99.90
3408;DHT22;1717;50.240;8.406;2022-12-01T10:49:44;5.70;99.90
3408;DHT22;1717;50.240;8.406;2022-12-01T10:52:33;5.70;99.90
3408;DHT22;1717;50.240;8.406;2022-12-01T10:55:02;5.60;99.90
3408;DHT22;1717;50.240;8.406;2022-12-01T10:57:31;5.60;99.90
3408;DHT22;1717;50.240;8.406;2022-12-01T11:00:00;5.60;99.90
3408;DHT22;1717;50.240;8.406;2022-12-01T11:02:30;5.70;99.90
3408;DHT22;1717;50.240;8.406;2022-12-01T11:04:59;5.70;99.90
3408;DHT22;1717;50.240;8.406;2022-12-01T11:07:28;5.70;99.90
3408;DHT22;1717;50.240;8.406;2022-12-01T11:10:11;5.60;99.90
3408;DHT22;1717;50.240;8.406;2022-12-01T11:12:41;5.50;99.90
3408;DHT22;1717;50.240;8.406;2022-12-01T11:15:18;5.70;99.90
3408;DHT22;1717;50.240;8.406;2022-12-01T11:17:46;5.70;99.90
3408;DHT22;1717;50.240;8.406;2022-12-01T11:20:26;5.70;99.90
3408;DHT22;1717;50.240;8.406;2022-12-01T11:23:20;5.60;99.90
3408;DHT22;1717;50.240;8.406;2022-12-01T11:25:58;5.70;99.90
3408;DHT22;1717;50.240;8.406;2022-12-01T11:28:28;5.80;99.90
3408;DHT22;1717;50.240;8.406;2022-12-01T11:30:56;5.70;99.90
3408;DHT22;1717;50.240;8.406;2022-12-01T11:33:24;5.70;99.90
3408;DHT22;1717;50.240;8.406;2022-12-01T11:35:51;5.80;99.90
3408;DHT22;1717;50.240;8.406;2022-12-01T11:38:20;5.80;99.90
3408;DHT22;1717;50.240;8.406;2022-12-01T11:40:49;5.90;99.90
3408;DHT22;1717;50.240;8.406;2022-12-01T11:43:22;5.90;99.90
3408;DHT22;1717;50.240;8.406;2022-12-01T11:45:52;6.00;99.90
3408;DHT22;1717;50.240;8.406;2022-12-01T11:48:23;5.90;99.90
3408;DHT22;1717;50.240;8.406;2022-12-01T11:51:04;6.00;99.90
3408;DHT22;1717;50.240;8.406;2022-12-01T11:53:33;6.00;99.90
3408;DHT22;1717;50.240;8.406;2022-12-01T11:56:16;5.90;99.90
3408;DHT22;1717;50.240;8.406;2022-12-01T11:58:45;5.80;99.90
3408;DHT22;1717;50.240;8.406;2022-12-01T12:04:11;5.90;99.90
3408;DHT22;1717;50.240;8.406;2022-12-01T12:06:45;5.90;99.90
3408;DHT22;1717;50.240;8.406;2022-12-01T12:09:31;6.00;99.90
3408;DHT22;1717;50.240;8.406;2022-12-01T12:12:05;6.00;99.90
3408;DHT22;1717;50.240;8.406;2022-12-01T12:14:47;6.00;99.90
3408;DHT22;1717;50.240;8.406;2022-12-01T12:17:29;6.00;99.90
3408;DHT22;1717;50.240;8.406;2022-12-01T12:20:10;5.80;99.90
3408;DHT22;1717;50.240;8.406;2022-12-01T12:22:48;5.90;99.90
3408;DHT22;1717;50.240;8.406;2022-12-01T12:25:24;5.80;99.90
3408;DHT22;1717;50.240;8.406;2022-12-01T12:28:03;5.70;99.90
3408;DHT22;1717;50.240;8.406;2022-12-01T12:30:38;5.70;99.90
3408;DHT22;1717;50.240;8.406;2022-12-01T12:33:27;5.70;99.90
3408;DHT22;1717;50.240;8.406;2022-12-01T12:36:03;5.70;99.90
3408;DHT22;1717;50.240;8.406;2022-12-01T12:38:48;5.60;99.90
3408;DHT22;1717;50.240;8.406;2022-12-01T12:41:24;5.60;99.90
3408;DHT22;1717;50.240;8.406;2022-12-01T12:44:02;5.70;99.90
3408;DHT22;1717;50.240;8.406;2022-12-01T12:46:38;5.60;99.90
3408;DHT22;1717;50.240;8.406;2022-12-01T12:49:23;5.60;99.90
3408;DHT22;1717;50.240;8.406;2022-12-01T12:51:57;5.60;99.90
3408;DHT22;1717;50.240;8.406;2022-12-01T12:54:28;5.70;99.90
3408;DHT22;1717;50.240;8.406;2022-12-01T12:57:01;5.70;99.90
3408;DHT22;1717;50.240;8.406;2022-12-01T12:59:33;5.60;99.90
3408;DHT22;1717;50.240;8.406;2022-12-01T13:02:09;5.70;99.90
3408;DHT22;1717;50.240;8.406;2022-12-01T13:04:43;5.50;99.90
3408;DHT22;1717;50.240;8.406;2022-12-01T13:07:24;5.50;99.90
3408;DHT22;1717;50.240;8.406;2022-12-01T13:09:53;5.40;99.90
3408;DHT22;1717;50.240;8.406;2022-12-01T13:12:26;5.40;99.90
3408;DHT22;1717;50.240;8.406;2022-12-01T13:14:58;5.30;99.90
3408;DHT22;1717;50.240;8.406;2022-12-01T13:17:29;5.40;99.90
3408;DHT22;1717;50.240;8.406;2022-12-01T13:19:58;5.30;99.90
3408;DHT22;1717;50.240;8.406;2022-12-01T13:22:29;5.40;99.90
3408;DHT22;1717;50.240;8.406;2022-12-01T13:24:57;5.30;99.90
3408;DHT22;1717;50.240;8.406;2022-12-01T13:27:25;5.40;99.90
3408;DHT22;1717;50.240;8.406;2022-12-01T13:29:55;5.40;99.90
3408;DHT22;1717;50.240;8.406;2022-12-01T13:32:27;5.40;99.90
3408;DHT22;1717;50.240;8.406;2022-12-01T13:34:58;5.50;99.90
3408;DHT22;1717;50.240;8.406;2022-12-01T13:37:28;5.50;99.90
3408;DHT22;1717;50.240;8.406;2022-12-01T13:40:06;5.50;99.90
3408;DHT22;1717;50.240;8.406;2022-12-01T13:42:34;5.40;99.90
3408;DHT22;1717;50.240;8.406;2022-12-01T13:45:07;5.40;99.90
3408;DHT22;1717;50.240;8.406;2022-12-01T13:47:48;5.40;99.90
3408;DHT22;1717;50.240;8.406;2022-12-01T13:53:36;5.50;99.90
3408;DHT22;1717;50.240;8.406;2022-12-01T13:56:25;5.60;99.90
3408;DHT22;1717;50.240;8.406;2022-12-01T13:58:53;5.60;99.90
3408;DHT22;1717;50.240;8.406;2022-12-01T14:01:43;5.60;99.90
3408;DHT22;1717;50.240;8.406;2022-12-01T14:04:28;5.60;99.90
3408;DHT22;1717;50.240;8.406;2022-12-01T14:07:26;5.70;99.90
3408;DHT22;1717;50.240;8.406;2022-12-01T14:10:06;5.80;99.90
3408;DHT22;1717;50.240;8.406;2022-12-01T14:12:34;5.80;99.90
3408;DHT22;1717;50.240;8.406;2022-12-01T14:15:18;5.80;99.90
3408;DHT22;1717;50.240;8.406;2022-12-01T14:17:46;5.90;99.90
3408;DHT22;1717;50.240;8.406;2022-12-01T14:20:20;5.90;99.90
3408;DHT22;1717;50.240;8.406;2022-12-01T14:23:02;6.00;99.90
3408;DHT22;1717;50.240;8.406;2022-12-01T14:25:31;6.10;99.90
3408;DHT22;1717;50.240;8.406;2022-12-01T14:27:59;6.10;99.90
3408;DHT22;1717;50.240;8.406;2022-12-01T14:31:01;6.10;99.90
3408;DHT22;1717;50.240;8.406;2022-12-01T14:33:47;6.10;99.90
3408;DHT22;1717;50.240;8.406;2022-12-01T14:36:35;6.10;99.90
3408;DHT22;1717;50.240;8.406;2022-12-01T14:39:09;6.20;99.90
3408;DHT22;1717;50.240;8.406;2022-12-01T14:41:42;6.40;99.90
3408;DHT22;1717;50.240;8.406;2022-12-01T14:44:22;6.30;99.90
3408;DHT22;1717;50.240;8.406;2022-12-01T14:46:51;6.30;99.90
3408;DHT22;1717;50.240;8.406;2022-12-01T14:49:25;6.30;99.90
3408;DHT22;1717;50.240;8.406;2022-12-01T14:51:57;6.30;99.90
3408;DHT22;1717;50.240;8.406;2022-12-01T14:54:31;6.30;99.90
3408;DHT22;1717;50.240;8.406;2022-12-01T14:57:02;6.40;99.90
3408;DHT22;1717;50.240;8.406;2022-12-01T14:59:29;6.40;99.90
3408;DHT22;1717;50.240;8.406;2022-12-01T15:02:01;6.40;99.90
3408;DHT22;1717;50.240;8.406;2022-12-01T15:04:33;6.40;99.90
3408;DHT22;1717;50.240;8.406;2022-12-01T15:07:00;6.40;99.90
3408;DHT22;1717;50.240;8.406;2022-12-01T15:09:27;6.40;99.90
3408;DHT22;1717;50.240;8.406;2022-12-01T15:11:56;6.40;99.90
3408;DHT22;1717;50.240;8.406;2022-12-01T15:14:32;6.40;99.90
3408;DHT22;1717;50.240;8.406;2022-12-01T15:16:59;6.40;99.90
3408;DHT22;1717;50.240;8.406;2022-12-01T15:19:38;6.40;99.90
3408;DHT22;1717;50.240;8.406;2022-12-01T15:22:11;6.40;99.90
3408;DHT22;1717;50.240;8.406;2022-12-01T15:24:39;6.40;99.90
3408;DHT22;1717;50.240;8.406;2022-12-01T15:27:26;6.40;99.90
3408;DHT22;1717;50.240;8.406;2022-12-01T15:29:55;6.40;99.90
3408;DHT22;1717;50.240;8.406;2022-12-01T15:32:24;6.40;99.90
3408;DHT22;1717;50.240;8.406;2022-12-01T15:34:53;6.40;99.90
3408;DHT22;1717;50.240;8.406;2022-12-01T15:37:22;6.40;99.90
3408;DHT22;1717;50.240;8.406;2022-12-01T15:39:52;6.40;99.90
3408;DHT22;1717;50.240;8.406;2022-12-01T15:42:25;6.40;99.90
3408;DHT22;1717;50.240;8.406;2022-12-01T15:44:59;6.40;99.90
3408;DHT22;1717;50.240;8.406;2022-12-01T15:47:32;6.40;99.90
3408;DHT22;1717;50.240;8.406;2022-12-01T15:50:02;6.40;99.90
3408;DHT22;1717;50.240;8.406;2022-12-01T15:52:29;6.40;99.90
3408;DHT22;1717;50.240;8.406;2022-12-01T15:55:01;6.40;99.90
3408;DHT22;1717;50.240;8.406;2022-12-01T15:57:31;6.50;99.90
3408;DHT22;1717;50.240;8.406;2022-12-01T15:59:59;6.50;99.90
3408;DHT22;1717;50.240;8.406;2022-12-01T16:02:28;6.50;99.90
3408;DHT22;1717;50.240;8.406;2022-12-01T16:05:03;6.50;99.90
3408;DHT22;1717;50.240;8.406;2022-12-01T16:07:40;6.50;99.90
3408;DHT22;1717;50.240;8.406;2022-12-01T16:10:24;6.50;99.90
3408;DHT22;1717;50.240;8.406;2022-12-01T16:12:52;6.50;99.90
3408;DHT22;1717;50.240;8.406;2022-12-01T16:15:20;6.60;99.90
3408;DHT22;1717;50.240;8.406;2022-12-01T16:17:48;6.60;99.90
3408;DHT22;1717;50.240;8.406;2022-12-01T16:20:31;6.60;99.90
3408;DHT22;1717;50.240;8.406;2022-12-01T16:23:00;6.70;99.90
3408;DHT22;1717;50.240;8.406;2022-12-01T16:25:32;6.60;99.90
3408;DHT22;1717;50.240;8.406;2022-12-01T16:27:59;6.60;99.90
3408;DHT22;1717;50.240;8.406;2022-12-01T16:30:34;6.60;99.90
3408;DHT22;1717;50.240;8.406;2022-12-01T16:33:03;6.60;99.90
3408;DHT22;1717;50.240;8.406;2022-12-01T16:35:37;6.60;99.90
3408;DHT22;1717;50.240;8.406;2022-12-01T16:38:11;6.70;99.90
3408;DHT22;1717;50.240;8.406;2022-12-01T16:40:40;6.60;99.90
3408;DHT22;1717;50.240;8.406;2022-12-01T16:43:12;6.60;99.90
3408;DHT22;1717;50.240;8.406;2022-12-01T16:45:41;6.60;99.90
3408;DHT22;1717;50.240;8.406;2022-12-01T16:48:08;6.60;99.90
3408;DHT22;1717;50.240;8.406;2022-12-01T16:50:35;6.60;99.90